ΕΜΥ, Εθνική Μετεωρολογική Υπηρεσία - Δελτία Καιρού, Προγνώσεις

ΑΕΡΟΝΑΥΤΙΛΙΑ

GREEK AIRPORTS CODES

TAF LGAV 180500Z 1806/1906 VRB05KT 9999 FEW020 BECMG 1807/1809 16012KT BECMG 1816/1818 27008KT BECMG 1904/1906 04010KT=

EUROPEAN AIRPORTS CODES

LFPO 180500Z 04012KT CAVOK 10/06 Q1024 NOSIG=